DC3MD MYNN-MBGT
Flight info
| Callsign | DC3MD |
|---|---|
| Flight time | 1h 34m |
| Altitude | 27000 |
| Route | BOSAR DCT BTLER |
| Aircraft | B350/L-SBGRW/S |
Departure
| Time | 2026-05-07 09:12 |
|---|---|
| Airport | Lynden Pindling International Airport (MYNN) |
Arrival
| Time | 2026-05-07 10:47 |
|---|---|
| Airport | JAGS McCartney International Airport (MBGT) |
| Time | Latitude | Longitude | Altitude | Speed | Heading |
|---|---|---|---|---|---|
| 2026-05-07 09:03 | 25.04748 | -77.46524 | 24 ft | 0 kts | 358° |
| 2026-05-07 09:07 | 25.04750 | -77.46525 | 24 ft | 1 kts | 337° |
| 2026-05-07 09:07 | 25.04737 | -77.46527 | 24 ft | 6 kts | 146° |
| 2026-05-07 09:07 | 25.04699 | -77.46536 | 23 ft | 9 kts | 224° |
| 2026-05-07 09:07 | 25.04672 | -77.46614 | 23 ft | 15 kts | 306° |
| 2026-05-07 09:08 | 25.04728 | -77.46677 | 23 ft | 6 kts | 305° |
| 2026-05-07 09:08 | 25.04709 | -77.46742 | 23 ft | 9 kts | 244° |
| 2026-05-07 09:08 | 25.04745 | -77.46828 | 24 ft | 16 kts | 316° |
| 2026-05-07 09:08 | 25.04866 | -77.46962 | 24 ft | 20 kts | 313° |
| 2026-05-07 09:09 | 25.04996 | -77.47105 | 24 ft | 24 kts | 313° |
| 2026-05-07 09:09 | 25.05034 | -77.47151 | 24 ft | 10 kts | 316° |
| 2026-05-07 09:09 | 25.05115 | -77.47242 | 23 ft | 19 kts | 316° |
| 2026-05-07 09:09 | 25.05213 | -77.47353 | 23 ft | 18 kts | 293° |
| 2026-05-07 09:10 | 25.05214 | -77.47438 | 23 ft | 1 kts | 256° |
| 2026-05-07 09:10 | 25.05214 | -77.47439 | 23 ft | 0 kts | 256° |
| 2026-05-07 09:10 | 25.05210 | -77.47458 | 23 ft | 8 kts | 255° |
| 2026-05-07 09:10 | 25.05178 | -77.47568 | 23 ft | 20 kts | 250° |
| 2026-05-07 09:11 | 25.05144 | -77.47652 | 22 ft | 0 kts | 215° |
| 2026-05-07 09:11 | 25.05131 | -77.47639 | 22 ft | 10 kts | 44° |
| 2026-05-07 09:11 | 25.05191 | -77.47589 | 23 ft | 17 kts | 111° |
| 2026-05-07 09:12 | 25.04855 | -77.47194 | 25 ft | 122 kts | 136° |
| 2026-05-07 09:12 | 25.04147 | -77.46364 | 372 ft | 165 kts | 132° |
| 2026-05-07 09:12 | 25.03258 | -77.45367 | 799 ft | 206 kts | 133° |
| 2026-05-07 09:12 | 25.02421 | -77.44224 | 2202 ft | 188 kts | 125° |
| 2026-05-07 09:13 | 25.01823 | -77.42872 | 2854 ft | 213 kts | 117° |
| 2026-05-07 09:13 | 25.01131 | -77.41289 | 3311 ft | 240 kts | 114° |
| 2026-05-07 09:13 | 25.00619 | -77.39642 | 4514 ft | 228 kts | 103° |
| 2026-05-07 09:13 | 24.99974 | -77.38136 | 5609 ft | 217 kts | 134° |
| 2026-05-07 09:14 | 24.98770 | -77.37279 | 6671 ft | 207 kts | 156° |
| 2026-05-07 09:14 | 24.97605 | -77.36423 | 7639 ft | 200 kts | 136° |
| 2026-05-07 09:14 | 24.96689 | -77.35334 | 8501 ft | 196 kts | 128° |
| 2026-05-07 09:14 | 24.95856 | -77.34166 | 9320 ft | 193 kts | 125° |
| 2026-05-07 09:15 | 24.95073 | -77.33000 | 10097 ft | 190 kts | 123° |
| 2026-05-07 09:15 | 24.94320 | -77.31853 | 10847 ft | 186 kts | 122° |
| 2026-05-07 09:15 | 24.93583 | -77.30727 | 11557 ft | 176 kts | 121° |
| 2026-05-07 09:15 | 24.92901 | -77.29681 | 12138 ft | 164 kts | 120° |
| 2026-05-07 09:16 | 24.92254 | -77.28689 | 12631 ft | 155 kts | 118° |
| 2026-05-07 09:16 | 24.91639 | -77.27742 | 13067 ft | 150 kts | 117° |
| 2026-05-07 09:16 | 24.91086 | -77.26891 | 13426 ft | 147 kts | 117° |
| 2026-05-07 09:16 | 24.90533 | -77.26038 | 13743 ft | 146 kts | 117° |
| 2026-05-07 09:17 | 24.89929 | -77.25110 | 14045 ft | 146 kts | 117° |
| 2026-05-07 09:17 | 24.89331 | -77.24187 | 14331 ft | 151 kts | 117° |
| 2026-05-07 09:17 | 24.88700 | -77.23214 | 14688 ft | 159 kts | 118° |
| 2026-05-07 09:17 | 24.88040 | -77.22205 | 15068 ft | 161 kts | 118° |
| 2026-05-07 09:18 | 24.87385 | -77.21201 | 15405 ft | 161 kts | 118° |
| 2026-05-07 09:18 | 24.86737 | -77.20207 | 15712 ft | 162 kts | 118° |
| 2026-05-07 09:18 | 24.86076 | -77.19193 | 16010 ft | 163 kts | 118° |
| 2026-05-07 09:18 | 24.85406 | -77.18164 | 16231 ft | 169 kts | 118° |
| 2026-05-07 09:19 | 24.84701 | -77.17083 | 16453 ft | 175 kts | 118° |
| 2026-05-07 09:19 | 24.83980 | -77.15980 | 16704 ft | 179 kts | 119° |
| 2026-05-07 09:19 | 24.83242 | -77.14848 | 16967 ft | 182 kts | 119° |
| 2026-05-07 09:19 | 24.82507 | -77.13724 | 17226 ft | 184 kts | 120° |
| 2026-05-07 09:20 | 24.81758 | -77.12575 | 17489 ft | 186 kts | 120° |
| 2026-05-07 09:20 | 24.80997 | -77.11410 | 17759 ft | 187 kts | 120° |
| 2026-05-07 09:20 | 24.80233 | -77.10242 | 18024 ft | 188 kts | 119° |
| 2026-05-07 09:20 | 24.79473 | -77.09077 | 18284 ft | 188 kts | 120° |
| 2026-05-07 09:21 | 24.78701 | -77.07897 | 18542 ft | 189 kts | 119° |
| 2026-05-07 09:21 | 24.77931 | -77.06718 | 18794 ft | 189 kts | 119° |
| 2026-05-07 09:21 | 24.77163 | -77.05543 | 19043 ft | 190 kts | 120° |
| 2026-05-07 09:21 | 24.76385 | -77.04354 | 19290 ft | 190 kts | 119° |
| 2026-05-07 09:22 | 24.75612 | -77.03172 | 19524 ft | 190 kts | 119° |
| 2026-05-07 09:22 | 24.74841 | -77.01993 | 19750 ft | 190 kts | 119° |
| 2026-05-07 09:22 | 24.74058 | -77.00796 | 19968 ft | 191 kts | 120° |
| 2026-05-07 09:22 | 24.73273 | -76.99597 | 20186 ft | 193 kts | 119° |
| 2026-05-07 09:23 | 24.72462 | -76.98357 | 20418 ft | 196 kts | 119° |
| 2026-05-07 09:23 | 24.71664 | -76.97139 | 20652 ft | 197 kts | 119° |
| 2026-05-07 09:23 | 24.70857 | -76.95905 | 20893 ft | 198 kts | 120° |
| 2026-05-07 09:23 | 24.70043 | -76.94663 | 21128 ft | 199 kts | 120° |
| 2026-05-07 09:24 | 24.69228 | -76.93420 | 21365 ft | 200 kts | 120° |
| 2026-05-07 09:24 | 24.68421 | -76.92189 | 21594 ft | 200 kts | 119° |
| 2026-05-07 09:24 | 24.67646 | -76.91008 | 21804 ft | 200 kts | 120° |
| 2026-05-07 09:24 | 24.66830 | -76.89764 | 22026 ft | 201 kts | 120° |
| 2026-05-07 09:25 | 24.66016 | -76.88522 | 22244 ft | 201 kts | 120° |
| 2026-05-07 09:25 | 24.65193 | -76.87269 | 22457 ft | 201 kts | 120° |
| 2026-05-07 09:25 | 24.64367 | -76.86010 | 22663 ft | 201 kts | 119° |
| 2026-05-07 09:25 | 24.63547 | -76.84734 | 22859 ft | 200 kts | 114° |
| 2026-05-07 09:26 | 24.62822 | -76.83410 | 23049 ft | 200 kts | 114° |
| 2026-05-07 09:26 | 24.62092 | -76.82076 | 23236 ft | 200 kts | 114° |
| 2026-05-07 09:26 | 24.61359 | -76.80740 | 23423 ft | 200 kts | 114° |
| 2026-05-07 09:26 | 24.60646 | -76.79444 | 23601 ft | 200 kts | 114° |
| 2026-05-07 09:27 | 24.59915 | -76.78115 | 23773 ft | 201 kts | 114° |
| 2026-05-07 09:27 | 24.59188 | -76.76791 | 23944 ft | 201 kts | 114° |
| 2026-05-07 09:27 | 24.57722 | -76.74131 | 24267 ft | 202 kts | 114° |
| 2026-05-07 09:28 | 24.56990 | -76.72803 | 24422 ft | 202 kts | 114° |
| 2026-05-07 09:28 | 24.56258 | -76.71473 | 24580 ft | 202 kts | 114° |
| 2026-05-07 09:28 | 24.55526 | -76.70146 | 24733 ft | 202 kts | 114° |
| 2026-05-07 09:28 | 24.54795 | -76.68819 | 24882 ft | 202 kts | 114° |
| 2026-05-07 09:29 | 24.54067 | -76.67501 | 25028 ft | 202 kts | 114° |
| 2026-05-07 09:29 | 24.53330 | -76.66156 | 25174 ft | 202 kts | 113° |
| 2026-05-07 09:29 | 24.52616 | -76.64831 | 25310 ft | 202 kts | 113° |
| 2026-05-07 09:29 | 24.51904 | -76.63488 | 25442 ft | 201 kts | 112° |
| 2026-05-07 09:30 | 24.51213 | -76.62161 | 25570 ft | 201 kts | 112° |
| 2026-05-07 09:30 | 24.50522 | -76.60812 | 25661 ft | 204 kts | 112° |
| 2026-05-07 09:30 | 24.49819 | -76.59403 | 25685 ft | 211 kts | 111° |
| 2026-05-07 09:30 | 24.49105 | -76.57937 | 25720 ft | 218 kts | 111° |
| 2026-05-07 09:31 | 24.48382 | -76.56413 | 25753 ft | 226 kts | 110° |
| 2026-05-07 09:31 | 24.47662 | -76.54861 | 25799 ft | 232 kts | 110° |
| 2026-05-07 09:31 | 24.46929 | -76.53248 | 25908 ft | 235 kts | 109° |
| 2026-05-07 09:31 | 24.46204 | -76.51629 | 26053 ft | 236 kts | 109° |
| 2026-05-07 09:32 | 24.45487 | -76.50007 | 26229 ft | 236 kts | 109° |
| 2026-05-07 09:32 | 24.44788 | -76.48407 | 26402 ft | 235 kts | 109° |
| 2026-05-07 09:32 | 24.44089 | -76.46787 | 26576 ft | 235 kts | 108° |
| 2026-05-07 09:32 | 24.43395 | -76.45160 | 26743 ft | 234 kts | 108° |
| 2026-05-07 09:33 | 24.42708 | -76.43528 | 26886 ft | 235 kts | 108° |
| 2026-05-07 09:33 | 24.42039 | -76.41915 | 27001 ft | 237 kts | 108° |
| 2026-05-07 09:33 | 24.41355 | -76.40235 | 27017 ft | 244 kts | 107° |
| 2026-05-07 09:33 | 24.40663 | -76.38499 | 27025 ft | 251 kts | 107° |
| 2026-05-07 09:34 | 24.39966 | -76.36712 | 27031 ft | 262 kts | 107° |
| 2026-05-07 09:34 | 24.39246 | -76.34819 | 27033 ft | 275 kts | 107° |
| 2026-05-07 09:34 | 24.38512 | -76.32838 | 27028 ft | 287 kts | 107° |
| 2026-05-07 09:34 | 24.37755 | -76.30753 | 27024 ft | 298 kts | 106° |
| 2026-05-07 09:35 | 24.36986 | -76.28598 | 27019 ft | 305 kts | 106° |
| 2026-05-07 09:35 | 24.36206 | -76.26382 | 27025 ft | 312 kts | 106° |
| 2026-05-07 09:35 | 24.35427 | -76.24142 | 27060 ft | 317 kts | 106° |
| 2026-05-07 09:35 | 24.34651 | -76.21883 | 27042 ft | 324 kts | 106° |
| 2026-05-07 09:36 | 24.33828 | -76.19563 | 27035 ft | 331 kts | 110° |
| 2026-05-07 09:36 | 24.32711 | -76.17293 | 27035 ft | 340 kts | 119° |
| 2026-05-07 09:36 | 24.31292 | -76.15201 | 27035 ft | 347 kts | 128° |
| 2026-05-07 09:36 | 24.29523 | -76.13248 | 27034 ft | 353 kts | 137° |
| 2026-05-07 09:37 | 24.27686 | -76.11710 | 27035 ft | 358 kts | 145° |
| 2026-05-07 09:37 | 24.25504 | -76.10312 | 27035 ft | 362 kts | 151° |
| 2026-05-07 09:37 | 24.23279 | -76.08990 | 27033 ft | 366 kts | 150° |
| 2026-05-07 09:37 | 24.21127 | -76.07486 | 27033 ft | 368 kts | 142° |
| 2026-05-07 09:38 | 24.19184 | -76.05673 | 27035 ft | 368 kts | 133° |
| 2026-05-07 09:38 | 24.17477 | -76.03574 | 27035 ft | 368 kts | 125° |
| 2026-05-07 09:38 | 24.16055 | -76.01248 | 27035 ft | 368 kts | 116° |
| 2026-05-07 09:38 | 24.14928 | -75.98696 | 27029 ft | 365 kts | 107° |
| 2026-05-07 09:39 | 24.14026 | -75.96121 | 27034 ft | 366 kts | 109° |
| 2026-05-07 09:39 | 24.12872 | -75.93623 | 27039 ft | 368 kts | 115° |
| 2026-05-07 09:39 | 24.11599 | -75.91212 | 27036 ft | 369 kts | 117° |
| 2026-05-07 09:39 | 24.10257 | -75.88766 | 27035 ft | 369 kts | 117° |
| 2026-05-07 09:40 | 24.08907 | -75.86339 | 27039 ft | 369 kts | 117° |
| 2026-05-07 09:40 | 24.07570 | -75.83950 | 27038 ft | 370 kts | 118° |
| 2026-05-07 09:40 | 24.06224 | -75.81550 | 27035 ft | 370 kts | 118° |
| 2026-05-07 09:40 | 24.04870 | -75.79139 | 27038 ft | 370 kts | 118° |
| 2026-05-07 09:41 | 24.03501 | -75.76702 | 27037 ft | 370 kts | 118° |
| 2026-05-07 09:41 | 24.02150 | -75.74298 | 27040 ft | 370 kts | 118° |
| 2026-05-07 09:41 | 24.00791 | -75.71878 | 27037 ft | 370 kts | 117° |
| 2026-05-07 09:41 | 23.99398 | -75.69401 | 27039 ft | 370 kts | 117° |
| 2026-05-07 09:42 | 23.98056 | -75.67017 | 27036 ft | 370 kts | 117° |
| 2026-05-07 09:42 | 23.96690 | -75.64592 | 27037 ft | 370 kts | 118° |
| 2026-05-07 09:42 | 23.95328 | -75.62175 | 27041 ft | 370 kts | 118° |
| 2026-05-07 09:42 | 23.93974 | -75.59775 | 27041 ft | 370 kts | 117° |
| 2026-05-07 09:43 | 23.92707 | -75.57313 | 27032 ft | 367 kts | 111° |
| 2026-05-07 09:43 | 23.91766 | -75.54723 | 27036 ft | 363 kts | 103° |
| 2026-05-07 09:43 | 23.90987 | -75.52080 | 27045 ft | 363 kts | 103° |
| 2026-05-07 09:43 | 23.90016 | -75.49507 | 27043 ft | 367 kts | 112° |
| 2026-05-07 09:44 | 23.88735 | -75.47010 | 27039 ft | 369 kts | 117° |
| 2026-05-07 09:44 | 23.87385 | -75.44583 | 27032 ft | 369 kts | 117° |
| 2026-05-07 09:44 | 23.86028 | -75.42189 | 27032 ft | 369 kts | 118° |
| 2026-05-07 09:44 | 23.84665 | -75.39803 | 27033 ft | 369 kts | 118° |
| 2026-05-07 09:45 | 23.83306 | -75.37431 | 27037 ft | 368 kts | 118° |
| 2026-05-07 09:45 | 23.81923 | -75.35018 | 27032 ft | 368 kts | 118° |
| 2026-05-07 09:45 | 23.80549 | -75.32625 | 27031 ft | 367 kts | 118° |
| 2026-05-07 09:45 | 23.79193 | -75.30264 | 27032 ft | 366 kts | 118° |
| 2026-05-07 09:46 | 23.77847 | -75.27920 | 27033 ft | 365 kts | 118° |
| 2026-05-07 09:46 | 23.76496 | -75.25569 | 27037 ft | 364 kts | 118° |
| 2026-05-07 09:46 | 23.75147 | -75.23224 | 27035 ft | 363 kts | 118° |
| 2026-05-07 09:46 | 23.73753 | -75.20801 | 27032 ft | 363 kts | 118° |
| 2026-05-07 09:47 | 23.72410 | -75.18469 | 27034 ft | 362 kts | 118° |
| 2026-05-07 09:47 | 23.71016 | -75.16048 | 27031 ft | 362 kts | 118° |
| 2026-05-07 09:47 | 23.69660 | -75.13696 | 27036 ft | 361 kts | 118° |
| 2026-05-07 09:47 | 23.68306 | -75.11346 | 27037 ft | 361 kts | 118° |
| 2026-05-07 09:48 | 23.67066 | -75.09197 | 27037 ft | 361 kts | 118° |
| 2026-05-07 09:48 | 23.65713 | -75.06850 | 27040 ft | 360 kts | 118° |
| 2026-05-07 09:48 | 23.64376 | -75.04534 | 27042 ft | 360 kts | 118° |
| 2026-05-07 09:48 | 23.63041 | -75.02223 | 27043 ft | 360 kts | 118° |
| 2026-05-07 09:49 | 23.61705 | -74.99912 | 27043 ft | 360 kts | 118° |
| 2026-05-07 09:49 | 23.60373 | -74.97606 | 27046 ft | 360 kts | 118° |
| 2026-05-07 09:49 | 23.59027 | -74.95280 | 27047 ft | 360 kts | 118° |
| 2026-05-07 09:49 | 23.57701 | -74.92989 | 27048 ft | 360 kts | 118° |
| 2026-05-07 09:50 | 23.56333 | -74.90625 | 27045 ft | 360 kts | 118° |
| 2026-05-07 09:50 | 23.54975 | -74.88279 | 27047 ft | 360 kts | 117° |
| 2026-05-07 09:50 | 23.53639 | -74.85973 | 27049 ft | 360 kts | 118° |
| 2026-05-07 09:50 | 23.52301 | -74.83664 | 27045 ft | 360 kts | 117° |
| 2026-05-07 09:51 | 23.50961 | -74.81355 | 27049 ft | 360 kts | 117° |
| 2026-05-07 09:51 | 23.49611 | -74.79028 | 27048 ft | 360 kts | 118° |
| 2026-05-07 09:51 | 23.48278 | -74.76731 | 27049 ft | 360 kts | 117° |
| 2026-05-07 09:51 | 23.46906 | -74.74367 | 27049 ft | 360 kts | 118° |
| 2026-05-07 09:52 | 23.45505 | -74.71957 | 27050 ft | 360 kts | 118° |
| 2026-05-07 09:52 | 23.44165 | -74.69653 | 27048 ft | 360 kts | 117° |
| 2026-05-07 09:52 | 23.42760 | -74.67236 | 27048 ft | 360 kts | 117° |
| 2026-05-07 09:52 | 23.41396 | -74.64892 | 27051 ft | 360 kts | 117° |
| 2026-05-07 09:53 | 23.40027 | -74.62540 | 27049 ft | 360 kts | 117° |
| 2026-05-07 09:53 | 23.38598 | -74.60087 | 27049 ft | 360 kts | 117° |
| 2026-05-07 09:53 | 23.37249 | -74.57770 | 27048 ft | 360 kts | 117° |
| 2026-05-07 09:53 | 23.35820 | -74.55318 | 27048 ft | 360 kts | 117° |
| 2026-05-07 09:54 | 23.34454 | -74.52977 | 27050 ft | 360 kts | 117° |
| 2026-05-07 09:54 | 23.33101 | -74.50657 | 27052 ft | 360 kts | 117° |
| 2026-05-07 09:54 | 23.31730 | -74.48309 | 27053 ft | 360 kts | 117° |
| 2026-05-07 09:54 | 23.30371 | -74.45981 | 27047 ft | 360 kts | 117° |
| 2026-05-07 09:55 | 23.29078 | -74.43767 | 27049 ft | 360 kts | 118° |
| 2026-05-07 09:55 | 23.27729 | -74.41461 | 27052 ft | 360 kts | 117° |
| 2026-05-07 09:55 | 23.26386 | -74.39163 | 27052 ft | 360 kts | 117° |
| 2026-05-07 09:55 | 23.25026 | -74.36841 | 27051 ft | 360 kts | 117° |
| 2026-05-07 09:56 | 23.23672 | -74.34527 | 27049 ft | 360 kts | 118° |
| 2026-05-07 09:56 | 23.22327 | -74.32230 | 27049 ft | 360 kts | 118° |
| 2026-05-07 09:56 | 23.21015 | -74.29989 | 27050 ft | 360 kts | 118° |
| 2026-05-07 09:56 | 23.19742 | -74.27818 | 27050 ft | 360 kts | 118° |
| 2026-05-07 09:57 | 23.18382 | -74.25499 | 27050 ft | 360 kts | 117° |
| 2026-05-07 09:57 | 23.17022 | -74.23179 | 27051 ft | 360 kts | 118° |
| 2026-05-07 09:57 | 23.15681 | -74.20894 | 27049 ft | 360 kts | 118° |
| 2026-05-07 09:57 | 23.14417 | -74.18742 | 27051 ft | 360 kts | 118° |
| 2026-05-07 09:58 | 23.13059 | -74.16431 | 27049 ft | 359 kts | 118° |
| 2026-05-07 09:58 | 23.11690 | -74.14100 | 27049 ft | 359 kts | 118° |
| 2026-05-07 09:58 | 23.10335 | -74.11795 | 27052 ft | 359 kts | 118° |
| 2026-05-07 09:58 | 23.09000 | -74.09525 | 27049 ft | 359 kts | 118° |
| 2026-05-07 09:59 | 23.07637 | -74.07209 | 27052 ft | 359 kts | 118° |
| 2026-05-07 09:59 | 23.06278 | -74.04900 | 27052 ft | 359 kts | 118° |
| 2026-05-07 09:59 | 23.04930 | -74.02612 | 27061 ft | 359 kts | 118° |
| 2026-05-07 09:59 | 23.03592 | -74.00342 | 27076 ft | 359 kts | 117° |
| 2026-05-07 10:00 | 23.02221 | -73.98013 | 26792 ft | 367 kts | 118° |
| 2026-05-07 10:00 | 23.00844 | -73.95679 | 26466 ft | 374 kts | 118° |
| 2026-05-07 10:00 | 22.99415 | -73.93256 | 26133 ft | 379 kts | 118° |
| 2026-05-07 10:00 | 22.97992 | -73.90848 | 25786 ft | 378 kts | 118° |
| 2026-05-07 10:01 | 22.96573 | -73.88448 | 25424 ft | 371 kts | 118° |
| 2026-05-07 10:01 | 22.95197 | -73.86121 | 25038 ft | 362 kts | 117° |
| 2026-05-07 10:01 | 22.93848 | -73.83840 | 24623 ft | 354 kts | 117° |
| 2026-05-07 10:01 | 22.92508 | -73.81574 | 24211 ft | 348 kts | 117° |
| 2026-05-07 10:02 | 22.91217 | -73.79391 | 23807 ft | 342 kts | 117° |
| 2026-05-07 10:02 | 22.89937 | -73.77228 | 23406 ft | 337 kts | 117° |
| 2026-05-07 10:02 | 22.88675 | -73.75097 | 22994 ft | 332 kts | 117° |
| 2026-05-07 10:02 | 22.87422 | -73.72980 | 22586 ft | 328 kts | 117° |
| 2026-05-07 10:03 | 22.86189 | -73.70900 | 22193 ft | 325 kts | 117° |
| 2026-05-07 10:03 | 22.84984 | -73.68868 | 21810 ft | 321 kts | 117° |
| 2026-05-07 10:03 | 22.83778 | -73.66834 | 21426 ft | 318 kts | 117° |
| 2026-05-07 10:03 | 22.82573 | -73.64803 | 21040 ft | 315 kts | 117° |
| 2026-05-07 10:04 | 22.81398 | -73.62823 | 20661 ft | 312 kts | 117° |
| 2026-05-07 10:04 | 22.80299 | -73.60973 | 20305 ft | 310 kts | 117° |
| 2026-05-07 10:04 | 22.79130 | -73.59004 | 19922 ft | 308 kts | 118° |
| 2026-05-07 10:04 | 22.77987 | -73.57079 | 19545 ft | 305 kts | 117° |
| 2026-05-07 10:05 | 22.76829 | -73.55133 | 19162 ft | 303 kts | 118° |
| 2026-05-07 10:05 | 22.75699 | -73.53232 | 18786 ft | 301 kts | 118° |
| 2026-05-07 10:05 | 22.74559 | -73.51315 | 18405 ft | 299 kts | 118° |
| 2026-05-07 10:05 | 22.73442 | -73.49437 | 18029 ft | 297 kts | 118° |
| 2026-05-07 10:06 | 22.72331 | -73.47571 | 17594 ft | 297 kts | 118° |
| 2026-05-07 10:06 | 22.71197 | -73.45667 | 17128 ft | 298 kts | 118° |
| 2026-05-07 10:06 | 22.70076 | -73.43784 | 16666 ft | 298 kts | 119° |
| 2026-05-07 10:06 | 22.68952 | -73.41899 | 16151 ft | 295 kts | 120° |
| 2026-05-07 10:07 | 22.67846 | -73.40043 | 15579 ft | 291 kts | 120° |
| 2026-05-07 10:07 | 22.66768 | -73.38236 | 15018 ft | 287 kts | 120° |
| 2026-05-07 10:07 | 22.65689 | -73.36427 | 14449 ft | 284 kts | 121° |
| 2026-05-07 10:07 | 22.64621 | -73.34637 | 13881 ft | 280 kts | 122° |
| 2026-05-07 10:08 | 22.63564 | -73.32867 | 13311 ft | 277 kts | 122° |
| 2026-05-07 10:08 | 22.62534 | -73.31142 | 12752 ft | 275 kts | 122° |
| 2026-05-07 10:08 | 22.61500 | -73.29411 | 12185 ft | 272 kts | 122° |
| 2026-05-07 10:08 | 22.60478 | -73.27702 | 11618 ft | 270 kts | 122° |
| 2026-05-07 10:09 | 22.59464 | -73.26006 | 11050 ft | 268 kts | 122° |
| 2026-05-07 10:09 | 22.58452 | -73.24313 | 10477 ft | 265 kts | 122° |
| 2026-05-07 10:09 | 22.57472 | -73.22629 | 9901 ft | 262 kts | 121° |
| 2026-05-07 10:09 | 22.56519 | -73.20956 | 9450 ft | 255 kts | 121° |
| 2026-05-07 10:10 | 22.55606 | -73.19344 | 9011 ft | 248 kts | 121° |
| 2026-05-07 10:10 | 22.54706 | -73.17755 | 8568 ft | 243 kts | 121° |
| 2026-05-07 10:10 | 22.53843 | -73.16228 | 8135 ft | 238 kts | 121° |
| 2026-05-07 10:10 | 22.52978 | -73.14699 | 7694 ft | 233 kts | 120° |
| 2026-05-07 10:11 | 22.52141 | -73.13218 | 7262 ft | 230 kts | 121° |
| 2026-05-07 10:11 | 22.51318 | -73.11762 | 6852 ft | 226 kts | 120° |
| 2026-05-07 10:11 | 22.50497 | -73.10310 | 6558 ft | 220 kts | 120° |
| 2026-05-07 10:11 | 22.49702 | -73.08905 | 6316 ft | 216 kts | 120° |
| 2026-05-07 10:12 | 22.48922 | -73.07526 | 6117 ft | 210 kts | 120° |
| 2026-05-07 10:12 | 22.48156 | -73.06173 | 5917 ft | 206 kts | 120° |
| 2026-05-07 10:12 | 22.47409 | -73.04852 | 5734 ft | 200 kts | 120° |
| 2026-05-07 10:12 | 22.46683 | -73.03571 | 5579 ft | 195 kts | 121° |
| 2026-05-07 10:13 | 22.45958 | -73.02288 | 5438 ft | 199 kts | 120° |
| 2026-05-07 10:13 | 22.45226 | -73.00995 | 5304 ft | 204 kts | 120° |
| 2026-05-07 10:13 | 22.44459 | -72.99641 | 5162 ft | 208 kts | 120° |
| 2026-05-07 10:13 | 22.43672 | -72.98252 | 5070 ft | 209 kts | 120° |
| 2026-05-07 10:14 | 22.42908 | -72.96904 | 4976 ft | 210 kts | 120° |
| 2026-05-07 10:14 | 22.42124 | -72.95521 | 4880 ft | 211 kts | 120° |
| 2026-05-07 10:14 | 22.41359 | -72.94173 | 4848 ft | 208 kts | 120° |
| 2026-05-07 10:14 | 22.40596 | -72.92830 | 4842 ft | 205 kts | 120° |
| 2026-05-07 10:15 | 22.39892 | -72.91589 | 4841 ft | 202 kts | 120° |
| 2026-05-07 10:15 | 22.39143 | -72.90269 | 4839 ft | 199 kts | 120° |
| 2026-05-07 10:15 | 22.38383 | -72.88930 | 4837 ft | 197 kts | 120° |
| 2026-05-07 10:15 | 22.37664 | -72.87665 | 4837 ft | 195 kts | 120° |
| 2026-05-07 10:16 | 22.36957 | -72.86420 | 4840 ft | 193 kts | 120° |
| 2026-05-07 10:16 | 22.36255 | -72.85185 | 4841 ft | 192 kts | 120° |
| 2026-05-07 10:16 | 22.35598 | -72.84030 | 4840 ft | 190 kts | 120° |
| 2026-05-07 10:16 | 22.34909 | -72.82818 | 4840 ft | 189 kts | 120° |
| 2026-05-07 10:17 | 22.34207 | -72.81583 | 4848 ft | 195 kts | 120° |
| 2026-05-07 10:17 | 22.33470 | -72.80285 | 4854 ft | 206 kts | 120° |
| 2026-05-07 10:17 | 22.32705 | -72.78938 | 4856 ft | 215 kts | 120° |
| 2026-05-07 10:17 | 22.31894 | -72.77513 | 4852 ft | 222 kts | 120° |
| 2026-05-07 10:18 | 22.31070 | -72.76064 | 4848 ft | 228 kts | 120° |
| 2026-05-07 10:18 | 22.30180 | -72.74503 | 4845 ft | 233 kts | 120° |
| 2026-05-07 10:18 | 22.29270 | -72.72905 | 4842 ft | 236 kts | 120° |
| 2026-05-07 10:18 | 22.28396 | -72.71370 | 4839 ft | 238 kts | 121° |
| 2026-05-07 10:19 | 22.27608 | -72.69989 | 4839 ft | 240 kts | 121° |
| 2026-05-07 10:19 | 22.27093 | -72.69084 | 4836 ft | 241 kts | 120° |
| 2026-05-07 10:19 | 22.26149 | -72.67429 | 4836 ft | 242 kts | 120° |
| 2026-05-07 10:19 | 22.25231 | -72.65820 | 4836 ft | 243 kts | 120° |
| 2026-05-07 10:20 | 22.24376 | -72.64321 | 4835 ft | 243 kts | 121° |
| 2026-05-07 10:20 | 22.23423 | -72.62650 | 4834 ft | 244 kts | 121° |
| 2026-05-07 10:20 | 22.22519 | -72.61067 | 4835 ft | 244 kts | 120° |
| 2026-05-07 10:20 | 22.21570 | -72.59405 | 4837 ft | 244 kts | 120° |
| 2026-05-07 10:21 | 22.20619 | -72.57740 | 4836 ft | 244 kts | 121° |
| 2026-05-07 10:21 | 22.19712 | -72.56152 | 4839 ft | 244 kts | 121° |
| 2026-05-07 10:21 | 22.18759 | -72.54485 | 4839 ft | 244 kts | 121° |
| 2026-05-07 10:21 | 22.17858 | -72.52909 | 4840 ft | 244 kts | 121° |
| 2026-05-07 10:22 | 22.16931 | -72.51288 | 4843 ft | 244 kts | 121° |
| 2026-05-07 10:22 | 22.16005 | -72.49670 | 4844 ft | 244 kts | 120° |
| 2026-05-07 10:22 | 22.15109 | -72.48103 | 4842 ft | 244 kts | 121° |
| 2026-05-07 10:22 | 22.14196 | -72.46509 | 4847 ft | 244 kts | 121° |
| 2026-05-07 10:23 | 22.13302 | -72.44946 | 4849 ft | 244 kts | 121° |
| 2026-05-07 10:23 | 22.12369 | -72.43317 | 4846 ft | 244 kts | 121° |
| 2026-05-07 10:23 | 22.11442 | -72.41699 | 4846 ft | 244 kts | 121° |
| 2026-05-07 10:23 | 22.10531 | -72.40112 | 4845 ft | 244 kts | 121° |
| 2026-05-07 10:24 | 22.09607 | -72.38499 | 4846 ft | 244 kts | 121° |
| 2026-05-07 10:24 | 22.08689 | -72.36898 | 4842 ft | 244 kts | 121° |
| 2026-05-07 10:24 | 22.07777 | -72.35309 | 4843 ft | 244 kts | 121° |
| 2026-05-07 10:24 | 22.06868 | -72.33723 | 4845 ft | 243 kts | 121° |
| 2026-05-07 10:25 | 22.05976 | -72.32170 | 4847 ft | 243 kts | 121° |
| 2026-05-07 10:25 | 22.05068 | -72.30587 | 4845 ft | 243 kts | 121° |
| 2026-05-07 10:25 | 22.04140 | -72.28973 | 4843 ft | 243 kts | 121° |
| 2026-05-07 10:25 | 22.03244 | -72.27412 | 4841 ft | 243 kts | 121° |
| 2026-05-07 10:26 | 22.02317 | -72.25799 | 4840 ft | 243 kts | 121° |
| 2026-05-07 10:26 | 22.01405 | -72.24212 | 4839 ft | 243 kts | 121° |
| 2026-05-07 10:26 | 22.00483 | -72.22608 | 4834 ft | 243 kts | 121° |
| 2026-05-07 10:26 | 21.99542 | -72.20972 | 4833 ft | 242 kts | 121° |
| 2026-05-07 10:27 | 21.98639 | -72.19402 | 4834 ft | 242 kts | 121° |
| 2026-05-07 10:27 | 21.97766 | -72.17885 | 4833 ft | 242 kts | 121° |
| 2026-05-07 10:27 | 21.96833 | -72.16265 | 4836 ft | 241 kts | 121° |
| 2026-05-07 10:27 | 21.95922 | -72.14683 | 4831 ft | 241 kts | 121° |
| 2026-05-07 10:28 | 21.94975 | -72.13039 | 4840 ft | 241 kts | 121° |
| 2026-05-07 10:28 | 21.94067 | -72.11462 | 4840 ft | 241 kts | 121° |
| 2026-05-07 10:28 | 21.93122 | -72.09822 | 4836 ft | 241 kts | 121° |
| 2026-05-07 10:28 | 21.92162 | -72.08159 | 4841 ft | 241 kts | 121° |
| 2026-05-07 10:29 | 21.91265 | -72.06602 | 4836 ft | 241 kts | 121° |
| 2026-05-07 10:29 | 21.90306 | -72.04939 | 4834 ft | 241 kts | 121° |
| 2026-05-07 10:29 | 21.89380 | -72.03336 | 4832 ft | 241 kts | 121° |
| 2026-05-07 10:30 | 21.87475 | -72.00035 | 4836 ft | 241 kts | 121° |
| 2026-05-07 10:30 | 21.86564 | -71.98457 | 4838 ft | 241 kts | 121° |
| 2026-05-07 10:30 | 21.85591 | -71.96773 | 4838 ft | 241 kts | 121° |
| 2026-05-07 10:30 | 21.84701 | -71.95234 | 4831 ft | 241 kts | 121° |
| 2026-05-07 10:31 | 21.83798 | -71.93671 | 4838 ft | 241 kts | 121° |
| 2026-05-07 10:31 | 21.82912 | -71.92137 | 4845 ft | 241 kts | 121° |
| 2026-05-07 10:31 | 21.82022 | -71.90599 | 4842 ft | 242 kts | 121° |
| 2026-05-07 10:31 | 21.81126 | -71.89050 | 4845 ft | 242 kts | 121° |
| 2026-05-07 10:32 | 21.80231 | -71.87504 | 4849 ft | 242 kts | 121° |
| 2026-05-07 10:32 | 21.79344 | -71.85972 | 4847 ft | 243 kts | 121° |
| 2026-05-07 10:32 | 21.78443 | -71.84416 | 4848 ft | 243 kts | 121° |
| 2026-05-07 10:32 | 21.77543 | -71.82863 | 4848 ft | 243 kts | 121° |
| 2026-05-07 10:33 | 21.76646 | -71.81314 | 4850 ft | 243 kts | 121° |
| 2026-05-07 10:33 | 21.75750 | -71.79768 | 4848 ft | 243 kts | 121° |
| 2026-05-07 10:33 | 21.74853 | -71.78220 | 4848 ft | 243 kts | 121° |
| 2026-05-07 10:33 | 21.74017 | -71.76779 | 4848 ft | 243 kts | 121° |
| 2026-05-07 10:34 | 21.73151 | -71.75287 | 4850 ft | 243 kts | 121° |
| 2026-05-07 10:34 | 21.72252 | -71.73737 | 4848 ft | 243 kts | 121° |
| 2026-05-07 10:34 | 21.71349 | -71.72180 | 4848 ft | 243 kts | 121° |
| 2026-05-07 10:34 | 21.70441 | -71.70616 | 4850 ft | 243 kts | 121° |
| 2026-05-07 10:35 | 21.69540 | -71.69064 | 4849 ft | 243 kts | 121° |
| 2026-05-07 10:35 | 21.68653 | -71.67538 | 4848 ft | 243 kts | 121° |
| 2026-05-07 10:35 | 21.67804 | -71.66077 | 4848 ft | 244 kts | 121° |
| 2026-05-07 10:35 | 21.66904 | -71.64527 | 4848 ft | 244 kts | 121° |
| 2026-05-07 10:36 | 21.65999 | -71.62972 | 4851 ft | 244 kts | 121° |
| 2026-05-07 10:36 | 21.65104 | -71.61431 | 4848 ft | 244 kts | 121° |
| 2026-05-07 10:36 | 21.64197 | -71.59870 | 4847 ft | 244 kts | 121° |
| 2026-05-07 10:36 | 21.63293 | -71.58314 | 4688 ft | 250 kts | 121° |
| 2026-05-07 10:37 | 21.62352 | -71.56697 | 4429 ft | 258 kts | 121° |
| 2026-05-07 10:37 | 21.61395 | -71.55054 | 4147 ft | 256 kts | 121° |
| 2026-05-07 10:37 | 21.60458 | -71.53446 | 3836 ft | 247 kts | 121° |
| 2026-05-07 10:37 | 21.59567 | -71.51917 | 3535 ft | 239 kts | 121° |
| 2026-05-07 10:38 | 21.58695 | -71.50420 | 3252 ft | 232 kts | 121° |
| 2026-05-07 10:38 | 21.57846 | -71.48963 | 3024 ft | 224 kts | 121° |
| 2026-05-07 10:38 | 21.57038 | -71.47578 | 2819 ft | 217 kts | 121° |
| 2026-05-07 10:38 | 21.56239 | -71.46209 | 2614 ft | 212 kts | 121° |
| 2026-05-07 10:39 | 21.55464 | -71.44878 | 2410 ft | 208 kts | 121° |
| 2026-05-07 10:39 | 21.54700 | -71.43570 | 2211 ft | 205 kts | 121° |
| 2026-05-07 10:39 | 21.53943 | -71.42271 | 2038 ft | 201 kts | 121° |
| 2026-05-07 10:39 | 21.53219 | -71.41032 | 2007 ft | 191 kts | 121° |
| 2026-05-07 10:40 | 21.52523 | -71.39841 | 2001 ft | 182 kts | 121° |
| 2026-05-07 10:40 | 21.51868 | -71.38718 | 1999 ft | 175 kts | 121° |
| 2026-05-07 10:40 | 21.51227 | -71.37620 | 2000 ft | 169 kts | 121° |
| 2026-05-07 10:40 | 21.50616 | -71.36576 | 2001 ft | 163 kts | 121° |
| 2026-05-07 10:41 | 21.50015 | -71.35546 | 1999 ft | 159 kts | 120° |
| 2026-05-07 10:41 | 21.49433 | -71.34545 | 2002 ft | 155 kts | 119° |
| 2026-05-07 10:41 | 21.49045 | -71.33464 | 1965 ft | 154 kts | 105° |
| 2026-05-07 10:41 | 21.48786 | -71.32348 | 1880 ft | 156 kts | 105° |
| 2026-05-07 10:42 | 21.48523 | -71.31231 | 1801 ft | 145 kts | 104° |
| 2026-05-07 10:42 | 21.48276 | -71.30183 | 1735 ft | 144 kts | 105° |
| 2026-05-07 10:42 | 21.48024 | -71.29126 | 1645 ft | 145 kts | 104° |
| 2026-05-07 10:42 | 21.47771 | -71.28066 | 1553 ft | 146 kts | 105° |
| 2026-05-07 10:43 | 21.47521 | -71.27019 | 1453 ft | 141 kts | 105° |
| 2026-05-07 10:43 | 21.47280 | -71.26013 | 1341 ft | 135 kts | 105° |
| 2026-05-07 10:43 | 21.47046 | -71.25037 | 1230 ft | 131 kts | 104° |
| 2026-05-07 10:43 | 21.46820 | -71.24094 | 1121 ft | 129 kts | 105° |
| 2026-05-07 10:44 | 21.46605 | -71.23152 | 1026 ft | 126 kts | 104° |
| 2026-05-07 10:44 | 21.46433 | -71.22293 | 1154 ft | 113 kts | 101° |
| 2026-05-07 10:44 | 21.46280 | -71.21452 | 1195 ft | 114 kts | 103° |
| 2026-05-07 10:44 | 21.46085 | -71.20593 | 1142 ft | 120 kts | 105° |
| 2026-05-07 10:45 | 21.45872 | -71.19764 | 968 ft | 111 kts | 106° |
| 2026-05-07 10:45 | 21.45655 | -71.18961 | 694 ft | 111 kts | 107° |
| 2026-05-07 10:45 | 21.45440 | -71.18184 | 566 ft | 106 kts | 107° |
| 2026-05-07 10:45 | 21.45250 | -71.17430 | 480 ft | 102 kts | 106° |
| 2026-05-07 10:46 | 21.45057 | -71.16699 | 356 ft | 102 kts | 104° |
| 2026-05-07 10:46 | 21.44875 | -71.15967 | 214 ft | 102 kts | 102° |
| 2026-05-07 10:46 | 21.44694 | -71.15219 | 76 ft | 100 kts | 99° |
| 2026-05-07 10:46 | 21.44543 | -71.14562 | 19 ft | 71 kts | 105° |
| 2026-05-07 10:47 | 21.44467 | -71.14296 | 19 ft | 24 kts | 109° |
| 2026-05-07 10:47 | 21.44438 | -71.14173 | 18 ft | 10 kts | 331° |
| 2026-05-07 10:47 | 21.44475 | -71.14331 | 19 ft | 32 kts | 284° |
| 2026-05-07 10:47 | 21.44504 | -71.14439 | 19 ft | 9 kts | 284° |
| 2026-05-07 10:48 | 21.44460 | -71.14521 | 19 ft | 18 kts | 193° |
| 2026-05-07 10:48 | 21.44338 | -71.14562 | 19 ft | 13 kts | 198° |
| 2026-05-07 10:48 | 21.44283 | -71.14577 | 20 ft | 2 kts | 194° |
| 2026-05-07 10:48 | 21.44274 | -71.14579 | 20 ft | 5 kts | 194° |
| 2026-05-07 10:49 | 21.44267 | -71.14581 | 20 ft | 0 kts | 194° |